sensor_id;sensor_type;location;lat;lon;timestamp;P1;durP1;ratioP1;P2;durP2;ratioP2
14316;SDS011;7242;50.858;6.586;2023-07-22T00:00:38;6.60;;;5.80;;
14316;SDS011;7242;50.858;6.586;2023-07-22T00:03:39;6.47;;;5.80;;
14316;SDS011;7242;50.858;6.586;2023-07-22T00:06:39;6.87;;;6.17;;
14316;SDS011;7242;50.858;6.586;2023-07-22T00:09:41;6.50;;;5.90;;
14316;SDS011;7242;50.858;6.586;2023-07-22T00:12:43;7.40;;;6.23;;
14316;SDS011;7242;50.858;6.586;2023-07-22T00:15:43;6.97;;;5.77;;
14316;SDS011;7242;50.858;6.586;2023-07-22T00:18:44;6.70;;;6.00;;
14316;SDS011;7242;50.858;6.586;2023-07-22T00:21:45;6.37;;;5.77;;
14316;SDS011;7242;50.858;6.586;2023-07-22T00:24:46;6.90;;;6.17;;
14316;SDS011;7242;50.858;6.586;2023-07-22T00:27:46;6.77;;;6.10;;
14316;SDS011;7242;50.858;6.586;2023-07-22T00:30:48;7.30;;;6.57;;
14316;SDS011;7242;50.858;6.586;2023-07-22T00:33:49;7.17;;;6.47;;
14316;SDS011;7242;50.858;6.586;2023-07-22T00:36:50;6.67;;;6.07;;
14316;SDS011;7242;50.858;6.586;2023-07-22T00:39:51;8.37;;;7.03;;
14316;SDS011;7242;50.858;6.586;2023-07-22T00:42:52;7.30;;;6.60;;
14316;SDS011;7242;50.858;6.586;2023-07-22T00:45:53;6.87;;;6.23;;
14316;SDS011;7242;50.858;6.586;2023-07-22T00:48:54;6.87;;;6.10;;
14316;SDS011;7242;50.858;6.586;2023-07-22T00:51:56;7.13;;;6.43;;
14316;SDS011;7242;50.858;6.586;2023-07-22T00:55:00;7.00;;;6.10;;
14316;SDS011;7242;50.858;6.586;2023-07-22T00:58:02;8.50;;;6.30;;
14316;SDS011;7242;50.858;6.586;2023-07-22T01:01:03;7.33;;;6.63;;
14316;SDS011;7242;50.858;6.586;2023-07-22T01:04:04;7.83;;;6.83;;
14316;SDS011;7242;50.858;6.586;2023-07-22T01:07:05;8.43;;;6.67;;
14316;SDS011;7242;50.858;6.586;2023-07-22T01:10:10;7.80;;;6.83;;
14316;SDS011;7242;50.858;6.586;2023-07-22T01:13:11;7.10;;;6.40;;
14316;SDS011;7242;50.858;6.586;2023-07-22T01:16:12;7.53;;;6.73;;
14316;SDS011;7242;50.858;6.586;2023-07-22T01:19:13;7.83;;;7.03;;
14316;SDS011;7242;50.858;6.586;2023-07-22T01:22:15;7.30;;;6.47;;
14316;SDS011;7242;50.858;6.586;2023-07-22T01:25:17;7.73;;;6.50;;
14316;SDS011;7242;50.858;6.586;2023-07-22T01:28:20;6.70;;;6.10;;
14316;SDS011;7242;50.858;6.586;2023-07-22T01:31:22;8.33;;;7.03;;
14316;SDS011;7242;50.858;6.586;2023-07-22T01:34:23;7.33;;;6.63;;
14316;SDS011;7242;50.858;6.586;2023-07-22T01:37:24;7.37;;;6.67;;
14316;SDS011;7242;50.858;6.586;2023-07-22T01:40:26;7.70;;;6.90;;
14316;SDS011;7242;50.858;6.586;2023-07-22T01:43:26;8.03;;;7.00;;
14316;SDS011;7242;50.858;6.586;2023-07-22T01:46:28;7.73;;;6.93;;
14316;SDS011;7242;50.858;6.586;2023-07-22T01:49:28;7.73;;;6.60;;
14316;SDS011;7242;50.858;6.586;2023-07-22T01:52:30;7.63;;;6.83;;
14316;SDS011;7242;50.858;6.586;2023-07-22T01:55:31;7.47;;;6.67;;
14316;SDS011;7242;50.858;6.586;2023-07-22T01:58:32;8.67;;;6.90;;
14316;SDS011;7242;50.858;6.586;2023-07-22T02:01:33;7.60;;;6.90;;
14316;SDS011;7242;50.858;6.586;2023-07-22T02:04:34;7.37;;;6.67;;
14316;SDS011;7242;50.858;6.586;2023-07-22T02:07:35;7.20;;;6.50;;
14316;SDS011;7242;50.858;6.586;2023-07-22T02:10:36;7.33;;;6.63;;
14316;SDS011;7242;50.858;6.586;2023-07-22T02:13:37;9.53;;;7.67;;
14316;SDS011;7242;50.858;6.586;2023-07-22T02:16:37;8.83;;;7.00;;
14316;SDS011;7242;50.858;6.586;2023-07-22T02:19:39;8.37;;;6.57;;
14316;SDS011;7242;50.858;6.586;2023-07-22T02:22:39;8.67;;;6.70;;
14316;SDS011;7242;50.858;6.586;2023-07-22T02:25:40;6.87;;;6.20;;
14316;SDS011;7242;50.858;6.586;2023-07-22T02:28:41;7.10;;;6.03;;
14316;SDS011;7242;50.858;6.586;2023-07-22T02:31:43;8.67;;;6.70;;
14316;SDS011;7242;50.858;6.586;2023-07-22T02:34:44;6.70;;;6.10;;
14316;SDS011;7242;50.858;6.586;2023-07-22T02:37:45;7.50;;;6.70;;
14316;SDS011;7242;50.858;6.586;2023-07-22T02:40:46;9.03;;;6.43;;
14316;SDS011;7242;50.858;6.586;2023-07-22T02:43:46;7.90;;;6.47;;
14316;SDS011;7242;50.858;6.586;2023-07-22T02:46:47;7.53;;;6.73;;
14316;SDS011;7242;50.858;6.586;2023-07-22T02:49:48;7.33;;;6.53;;
14316;SDS011;7242;50.858;6.586;2023-07-22T02:52:49;7.20;;;6.43;;
14316;SDS011;7242;50.858;6.586;2023-07-22T02:55:50;7.73;;;6.43;;
14316;SDS011;7242;50.858;6.586;2023-07-22T02:58:52;7.63;;;6.83;;
14316;SDS011;7242;50.858;6.586;2023-07-22T03:01:52;7.10;;;6.40;;
14316;SDS011;7242;50.858;6.586;2023-07-22T03:04:53;9.67;;;7.27;;
14316;SDS011;7242;50.858;6.586;2023-07-22T03:07:56;7.87;;;7.07;;
14316;SDS011;7242;50.858;6.586;2023-07-22T03:10:57;7.43;;;6.70;;
14316;SDS011;7242;50.858;6.586;2023-07-22T03:13:58;7.70;;;6.90;;
14316;SDS011;7242;50.858;6.586;2023-07-22T03:17:00;8.07;;;6.70;;
14316;SDS011;7242;50.858;6.586;2023-07-22T03:20:00;7.50;;;6.63;;
14316;SDS011;7242;50.858;6.586;2023-07-22T03:23:01;7.50;;;6.70;;
14316;SDS011;7242;50.858;6.586;2023-07-22T03:26:02;8.37;;;7.10;;
14316;SDS011;7242;50.858;6.586;2023-07-22T03:29:03;8.67;;;7.10;;
14316;SDS011;7242;50.858;6.586;2023-07-22T03:32:05;8.97;;;7.60;;
14316;SDS011;7242;50.858;6.586;2023-07-22T03:35:06;7.70;;;7.00;;
14316;SDS011;7242;50.858;6.586;2023-07-22T03:38:09;11.50;;;7.53;;
14316;SDS011;7242;50.858;6.586;2023-07-22T03:41:10;9.63;;;7.33;;
14316;SDS011;7242;50.858;6.586;2023-07-22T03:44:11;8.43;;;6.87;;
14316;SDS011;7242;50.858;6.586;2023-07-22T03:47:12;8.13;;;6.70;;
14316;SDS011;7242;50.858;6.586;2023-07-22T03:50:13;8.13;;;7.20;;
14316;SDS011;7242;50.858;6.586;2023-07-22T03:53:15;8.80;;;7.40;;
14316;SDS011;7242;50.858;6.586;2023-07-22T03:56:16;8.33;;;7.17;;
14316;SDS011;7242;50.858;6.586;2023-07-22T03:59:17;7.20;;;6.50;;
14316;SDS011;7242;50.858;6.586;2023-07-22T04:02:18;7.70;;;6.97;;
14316;SDS011;7242;50.858;6.586;2023-07-22T04:05:19;8.77;;;7.57;;
14316;SDS011;7242;50.858;6.586;2023-07-22T04:08:20;8.40;;;7.50;;
14316;SDS011;7242;50.858;6.586;2023-07-22T04:11:21;8.30;;;7.40;;
14316;SDS011;7242;50.858;6.586;2023-07-22T04:14:22;8.20;;;7.13;;
14316;SDS011;7242;50.858;6.586;2023-07-22T04:17:24;8.40;;;7.40;;
14316;SDS011;7242;50.858;6.586;2023-07-22T04:20:26;8.57;;;7.27;;
14316;SDS011;7242;50.858;6.586;2023-07-22T04:23:26;8.40;;;7.00;;
14316;SDS011;7242;50.858;6.586;2023-07-22T04:26:27;7.97;;;7.00;;
14316;SDS011;7242;50.858;6.586;2023-07-22T04:29:30;8.73;;;7.83;;
14316;SDS011;7242;50.858;6.586;2023-07-22T04:32:31;8.43;;;7.53;;
14316;SDS011;7242;50.858;6.586;2023-07-22T04:35:32;8.30;;;7.33;;
14316;SDS011;7242;50.858;6.586;2023-07-22T04:38:34;7.13;;;6.47;;
14316;SDS011;7242;50.858;6.586;2023-07-22T04:41:35;8.03;;;7.23;;
14316;SDS011;7242;50.858;6.586;2023-07-22T04:44:36;7.63;;;6.70;;
14316;SDS011;7242;50.858;6.586;2023-07-22T04:47:37;9.67;;;7.27;;
14316;SDS011;7242;50.858;6.586;2023-07-22T04:50:39;8.60;;;7.30;;
14316;SDS011;7242;50.858;6.586;2023-07-22T04:53:41;8.53;;;6.73;;
14316;SDS011;7242;50.858;6.586;2023-07-22T04:56:42;8.17;;;7.37;;
14316;SDS011;7242;50.858;6.586;2023-07-22T04:59:43;8.30;;;6.87;;
14316;SDS011;7242;50.858;6.586;2023-07-22T05:02:44;8.10;;;7.30;;
14316;SDS011;7242;50.858;6.586;2023-07-22T05:05:46;7.83;;;6.60;;
14316;SDS011;7242;50.858;6.586;2023-07-22T05:08:47;6.80;;;6.10;;
14316;SDS011;7242;50.858;6.586;2023-07-22T05:11:48;7.00;;;6.30;;
14316;SDS011;7242;50.858;6.586;2023-07-22T05:14:49;9.43;;;7.07;;
14316;SDS011;7242;50.858;6.586;2023-07-22T05:17:50;7.60;;;6.80;;
14316;SDS011;7242;50.858;6.586;2023-07-22T05:20:52;7.27;;;6.10;;
14316;SDS011;7242;50.858;6.586;2023-07-22T05:23:53;6.60;;;6.00;;
14316;SDS011;7242;50.858;6.586;2023-07-22T05:26:54;7.03;;;5.97;;
14316;SDS011;7242;50.858;6.586;2023-07-22T05:29:54;7.00;;;6.07;;
14316;SDS011;7242;50.858;6.586;2023-07-22T05:32:55;8.30;;;6.33;;
14316;SDS011;7242;50.858;6.586;2023-07-22T05:35:56;8.17;;;6.83;;
14316;SDS011;7242;50.858;6.586;2023-07-22T05:38:57;8.17;;;6.50;;
14316;SDS011;7242;50.858;6.586;2023-07-22T05:41:58;8.17;;;6.70;;
14316;SDS011;7242;50.858;6.586;2023-07-22T05:44:59;6.50;;;5.40;;
14316;SDS011;7242;50.858;6.586;2023-07-22T05:48:01;7.07;;;6.33;;
14316;SDS011;7242;50.858;6.586;2023-07-22T05:51:01;8.20;;;6.43;;
14316;SDS011;7242;50.858;6.586;2023-07-22T05:54:02;7.80;;;6.50;;
14316;SDS011;7242;50.858;6.586;2023-07-22T05:57:03;7.53;;;5.93;;
14316;SDS011;7242;50.858;6.586;2023-07-22T06:00:05;9.53;;;5.53;;
14316;SDS011;7242;50.858;6.586;2023-07-22T06:03:12;8.07;;;6.00;;
14316;SDS011;7242;50.858;6.586;2023-07-22T06:06:13;6.67;;;5.97;;
14316;SDS011;7242;50.858;6.586;2023-07-22T06:09:13;7.23;;;6.10;;
14316;SDS011;7242;50.858;6.586;2023-07-22T06:12:14;6.40;;;5.77;;
14316;SDS011;7242;50.858;6.586;2023-07-22T06:15:15;7.03;;;6.20;;
14316;SDS011;7242;50.858;6.586;2023-07-22T06:18:16;6.17;;;5.57;;
14316;SDS011;7242;50.858;6.586;2023-07-22T06:21:17;8.27;;;5.80;;
14316;SDS011;7242;50.858;6.586;2023-07-22T06:24:18;7.37;;;5.60;;
14316;SDS011;7242;50.858;6.586;2023-07-22T06:27:19;6.57;;;5.70;;
14316;SDS011;7242;50.858;6.586;2023-07-22T06:30:20;5.77;;;5.17;;
14316;SDS011;7242;50.858;6.586;2023-07-22T06:33:21;7.50;;;5.50;;
14316;SDS011;7242;50.858;6.586;2023-07-22T06:36:22;5.47;;;4.97;;
14316;SDS011;7242;50.858;6.586;2023-07-22T06:39:23;6.20;;;5.27;;
14316;SDS011;7242;50.858;6.586;2023-07-22T06:42:24;7.00;;;5.73;;
14316;SDS011;7242;50.858;6.586;2023-07-22T06:45:26;6.33;;;5.43;;
14316;SDS011;7242;50.858;6.586;2023-07-22T06:48:26;5.50;;;5.00;;
14316;SDS011;7242;50.858;6.586;2023-07-22T06:51:27;6.63;;;5.40;;
14316;SDS011;7242;50.858;6.586;2023-07-22T06:54:28;5.90;;;5.27;;
14316;SDS011;7242;50.858;6.586;2023-07-22T06:57:29;5.30;;;4.80;;
14316;SDS011;7242;50.858;6.586;2023-07-22T07:00:30;5.20;;;4.70;;
14316;SDS011;7242;50.858;6.586;2023-07-22T07:03:31;9.37;;;5.83;;
14316;SDS011;7242;50.858;6.586;2023-07-22T07:06:32;7.80;;;5.70;;
14316;SDS011;7242;50.858;6.586;2023-07-22T07:09:34;7.30;;;5.50;;
14316;SDS011;7242;50.858;6.586;2023-07-22T07:12:35;6.90;;;5.53;;
14316;SDS011;7242;50.858;6.586;2023-07-22T07:15:35;5.73;;;5.20;;
14316;SDS011;7242;50.858;6.586;2023-07-22T07:18:36;7.03;;;5.27;;
14316;SDS011;7242;50.858;6.586;2023-07-22T07:21:37;6.70;;;5.20;;
14316;SDS011;7242;50.858;6.586;2023-07-22T07:24:38;6.97;;;5.40;;
14316;SDS011;7242;50.858;6.586;2023-07-22T07:27:39;7.83;;;5.10;;
14316;SDS011;7242;50.858;6.586;2023-07-22T07:30:40;7.87;;;4.77;;
14316;SDS011;7242;50.858;6.586;2023-07-22T07:33:41;5.43;;;4.93;;
14316;SDS011;7242;50.858;6.586;2023-07-22T07:36:42;5.03;;;4.47;;
14316;SDS011;7242;50.858;6.586;2023-07-22T07:39:43;5.57;;;5.07;;
14316;SDS011;7242;50.858;6.586;2023-07-22T07:42:44;6.53;;;4.57;;
14316;SDS011;7242;50.858;6.586;2023-07-22T07:45:45;6.37;;;4.20;;
14316;SDS011;7242;50.858;6.586;2023-07-22T07:48:46;6.93;;;4.50;;
14316;SDS011;7242;50.858;6.586;2023-07-22T07:51:47;6.47;;;4.50;;
14316;SDS011;7242;50.858;6.586;2023-07-22T07:54:48;4.60;;;4.20;;
14316;SDS011;7242;50.858;6.586;2023-07-22T07:57:48;4.63;;;4.20;;
14316;SDS011;7242;50.858;6.586;2023-07-22T08:00:50;6.60;;;4.20;;
14316;SDS011;7242;50.858;6.586;2023-07-22T08:03:50;5.47;;;4.80;;
14316;SDS011;7242;50.858;6.586;2023-07-22T08:06:51;4.87;;;4.30;;
14316;SDS011;7242;50.858;6.586;2023-07-22T08:09:52;5.67;;;4.00;;
14316;SDS011;7242;50.858;6.586;2023-07-22T08:12:53;5.43;;;4.70;;
14316;SDS011;7242;50.858;6.586;2023-07-22T08:15:54;6.17;;;4.70;;
14316;SDS011;7242;50.858;6.586;2023-07-22T08:18:54;6.10;;;4.13;;
14316;SDS011;7242;50.858;6.586;2023-07-22T08:21:55;5.70;;;4.03;;
14316;SDS011;7242;50.858;6.586;2023-07-22T08:24:56;4.77;;;4.00;;
14316;SDS011;7242;50.858;6.586;2023-07-22T08:27:57;5.00;;;4.50;;
14316;SDS011;7242;50.858;6.586;2023-07-22T08:30:57;4.83;;;3.70;;
14316;SDS011;7242;50.858;6.586;2023-07-22T08:34:00;6.30;;;3.90;;
14316;SDS011;7242;50.858;6.586;2023-07-22T08:37:01;5.33;;;4.10;;
14316;SDS011;7242;50.858;6.586;2023-07-22T08:40:02;5.47;;;3.70;;
14316;SDS011;7242;50.858;6.586;2023-07-22T08:43:03;4.47;;;3.87;;
14316;SDS011;7242;50.858;6.586;2023-07-22T08:46:05;5.40;;;3.47;;
14316;SDS011;7242;50.858;6.586;2023-07-22T08:49:07;5.07;;;3.47;;
14316;SDS011;7242;50.858;6.586;2023-07-22T08:52:08;3.97;;;3.50;;
14316;SDS011;7242;50.858;6.586;2023-07-22T08:55:09;9.20;;;3.13;;
14316;SDS011;7242;50.858;6.586;2023-07-22T08:58:11;4.33;;;2.90;;
14316;SDS011;7242;50.858;6.586;2023-07-22T09:01:12;4.47;;;2.90;;
14316;SDS011;7242;50.858;6.586;2023-07-22T09:04:13;2.67;;;2.30;;
14316;SDS011;7242;50.858;6.586;2023-07-22T09:07:14;2.57;;;2.37;;
14316;SDS011;7242;50.858;6.586;2023-07-22T09:10:15;3.27;;;2.60;;
14316;SDS011;7242;50.858;6.586;2023-07-22T09:13:17;2.90;;;2.60;;
14316;SDS011;7242;50.858;6.586;2023-07-22T09:16:19;2.77;;;2.57;;
14316;SDS011;7242;50.858;6.586;2023-07-22T09:19:21;3.80;;;2.60;;
14316;SDS011;7242;50.858;6.586;2023-07-22T09:22:25;2.63;;;2.43;;
14316;SDS011;7242;50.858;6.586;2023-07-22T09:25:27;3.27;;;2.50;;
14316;SDS011;7242;50.858;6.586;2023-07-22T09:28:30;3.53;;;2.40;;
14316;SDS011;7242;50.858;6.586;2023-07-22T09:31:48;3.17;;;2.33;;
14316;SDS011;7242;50.858;6.586;2023-07-22T09:34:54;2.50;;;2.30;;
14316;SDS011;7242;50.858;6.586;2023-07-22T09:37:56;2.50;;;2.30;;
14316;SDS011;7242;50.858;6.586;2023-07-22T09:40:57;2.87;;;2.67;;
14316;SDS011;7242;50.858;6.586;2023-07-22T09:44:01;3.47;;;2.40;;
14316;SDS011;7242;50.858;6.586;2023-07-22T09:47:06;2.40;;;2.20;;
14316;SDS011;7242;50.858;6.586;2023-07-22T09:50:12;2.97;;;2.43;;
14316;SDS011;7242;50.858;6.586;2023-07-22T09:53:14;2.20;;;2.00;;
14316;SDS011;7242;50.858;6.586;2023-07-22T09:56:16;4.40;;;2.20;;
14316;SDS011;7242;50.858;6.586;2023-07-22T09:59:20;2.70;;;2.07;;
14316;SDS011;7242;50.858;6.586;2023-07-22T10:02:23;2.77;;;2.13;;
14316;SDS011;7242;50.858;6.586;2023-07-22T10:05:24;2.73;;;2.20;;
14316;SDS011;7242;50.858;6.586;2023-07-22T10:08:25;3.93;;;2.23;;
14316;SDS011;7242;50.858;6.586;2023-07-22T10:11:27;2.30;;;2.10;;
14316;SDS011;7242;50.858;6.586;2023-07-22T10:14:28;2.00;;;1.90;;
14316;SDS011;7242;50.858;6.586;2023-07-22T10:17:29;2.67;;;2.10;;
14316;SDS011;7242;50.858;6.586;2023-07-22T10:20:30;2.37;;;2.17;;
14316;SDS011;7242;50.858;6.586;2023-07-22T10:23:34;3.70;;;2.00;;
14316;SDS011;7242;50.858;6.586;2023-07-22T10:26:36;2.10;;;1.80;;
14316;SDS011;7242;50.858;6.586;2023-07-22T10:29:37;2.80;;;2.10;;
14316;SDS011;7242;50.858;6.586;2023-07-22T10:32:39;2.80;;;2.50;;
14316;SDS011;7242;50.858;6.586;2023-07-22T10:35:41;2.73;;;2.50;;
14316;SDS011;7242;50.858;6.586;2023-07-22T10:38:44;2.43;;;2.10;;
14316;SDS011;7242;50.858;6.586;2023-07-22T10:42:02;3.00;;;2.50;;
14316;SDS011;7242;50.858;6.586;2023-07-22T10:45:04;3.00;;;2.23;;
14316;SDS011;7242;50.858;6.586;2023-07-22T10:48:27;2.60;;;2.40;;
14316;SDS011;7242;50.858;6.586;2023-07-22T10:51:33;2.60;;;2.40;;
14316;SDS011;7242;50.858;6.586;2023-07-22T10:54:36;3.77;;;2.37;;
14316;SDS011;7242;50.858;6.586;2023-07-22T10:57:47;2.47;;;2.27;;
14316;SDS011;7242;50.858;6.586;2023-07-22T11:00:52;2.47;;;2.10;;
14316;SDS011;7242;50.858;6.586;2023-07-22T11:04:10;2.83;;;2.37;;
14316;SDS011;7242;50.858;6.586;2023-07-22T11:07:11;2.37;;;2.13;;
14316;SDS011;7242;50.858;6.586;2023-07-22T11:10:15;2.20;;;2.00;;
14316;SDS011;7242;50.858;6.586;2023-07-22T11:13:17;2.60;;;2.23;;
14316;SDS011;7242;50.858;6.586;2023-07-22T11:16:17;2.10;;;1.90;;
14316;SDS011;7242;50.858;6.586;2023-07-22T11:19:20;2.67;;;2.17;;
14316;SDS011;7242;50.858;6.586;2023-07-22T11:22:21;2.40;;;2.20;;
14316;SDS011;7242;50.858;6.586;2023-07-22T11:25:21;2.60;;;2.20;;
14316;SDS011;7242;50.858;6.586;2023-07-22T11:28:22;2.93;;;2.10;;
14316;SDS011;7242;50.858;6.586;2023-07-22T11:31:30;3.07;;;2.20;;
14316;SDS011;7242;50.858;6.586;2023-07-22T11:34:31;2.40;;;2.10;;
14316;SDS011;7242;50.858;6.586;2023-07-22T11:37:32;3.97;;;2.20;;
14316;SDS011;7242;50.858;6.586;2023-07-22T11:40:34;3.17;;;2.10;;
14316;SDS011;7242;50.858;6.586;2023-07-22T11:43:35;2.20;;;2.00;;
14316;SDS011;7242;50.858;6.586;2023-07-22T11:46:36;2.10;;;1.90;;
14316;SDS011;7242;50.858;6.586;2023-07-22T11:49:51;1.90;;;1.80;;
14316;SDS011;7242;50.858;6.586;2023-07-22T11:52:52;1.60;;;1.50;;
14316;SDS011;7242;50.858;6.586;2023-07-22T11:55:54;1.80;;;1.70;;
14316;SDS011;7242;50.858;6.586;2023-07-22T11:58:55;2.20;;;2.00;;
14316;SDS011;7242;50.858;6.586;2023-07-22T12:01:56;2.17;;;1.97;;
14316;SDS011;7242;50.858;6.586;2023-07-22T12:05:03;2.10;;;1.90;;
14316;SDS011;7242;50.858;6.586;2023-07-22T12:08:05;3.23;;;2.13;;
14316;SDS011;7242;50.858;6.586;2023-07-22T12:11:06;3.63;;;2.00;;
14316;SDS011;7242;50.858;6.586;2023-07-22T12:14:13;2.27;;;1.80;;
14316;SDS011;7242;50.858;6.586;2023-07-22T12:17:14;2.20;;;1.80;;
14316;SDS011;7242;50.858;6.586;2023-07-22T12:20:15;2.00;;;1.90;;
14316;SDS011;7242;50.858;6.586;2023-07-22T12:23:16;2.07;;;1.87;;
14316;SDS011;7242;50.858;6.586;2023-07-22T12:26:18;3.00;;;2.10;;
14316;SDS011;7242;50.858;6.586;2023-07-22T12:29:19;2.00;;;1.90;;
14316;SDS011;7242;50.858;6.586;2023-07-22T12:32:20;1.80;;;1.70;;
14316;SDS011;7242;50.858;6.586;2023-07-22T12:35:21;2.77;;;2.00;;
14316;SDS011;7242;50.858;6.586;2023-07-22T12:38:22;2.37;;;2.07;;
14316;SDS011;7242;50.858;6.586;2023-07-22T12:41:23;2.30;;;1.93;;
14316;SDS011;7242;50.858;6.586;2023-07-22T12:44:24;2.10;;;1.90;;
14316;SDS011;7242;50.858;6.586;2023-07-22T12:47:25;2.30;;;2.10;;
14316;SDS011;7242;50.858;6.586;2023-07-22T12:50:26;2.07;;;1.87;;
14316;SDS011;7242;50.858;6.586;2023-07-22T12:53:27;4.23;;;2.00;;
14316;SDS011;7242;50.858;6.586;2023-07-22T12:56:28;1.93;;;1.83;;
14316;SDS011;7242;50.858;6.586;2023-07-22T12:59:29;4.00;;;2.03;;
14316;SDS011;7242;50.858;6.586;2023-07-22T13:02:30;2.90;;;2.00;;
14316;SDS011;7242;50.858;6.586;2023-07-22T13:05:31;3.60;;;2.40;;
14316;SDS011;7242;50.858;6.586;2023-07-22T13:08:32;3.13;;;2.37;;
14316;SDS011;7242;50.858;6.586;2023-07-22T13:11:32;2.67;;;2.43;;
14316;SDS011;7242;50.858;6.586;2023-07-22T13:14:33;2.63;;;2.40;;
14316;SDS011;7242;50.858;6.586;2023-07-22T13:17:34;3.70;;;2.30;;
14316;SDS011;7242;50.858;6.586;2023-07-22T13:20:35;3.07;;;2.60;;
14316;SDS011;7242;50.858;6.586;2023-07-22T13:23:36;3.40;;;2.70;;
14316;SDS011;7242;50.858;6.586;2023-07-22T13:26:37;2.67;;;2.47;;
14316;SDS011;7242;50.858;6.586;2023-07-22T13:29:37;3.90;;;2.60;;
14316;SDS011;7242;50.858;6.586;2023-07-22T13:32:38;3.07;;;2.77;;
14316;SDS011;7242;50.858;6.586;2023-07-22T13:35:39;3.10;;;2.80;;
14316;SDS011;7242;50.858;6.586;2023-07-22T13:38:41;3.23;;;2.90;;
14316;SDS011;7242;50.858;6.586;2023-07-22T13:41:41;2.97;;;2.47;;
14316;SDS011;7242;50.858;6.586;2023-07-22T13:44:42;4.63;;;2.70;;
14316;SDS011;7242;50.858;6.586;2023-07-22T13:47:43;4.10;;;2.63;;
14316;SDS011;7242;50.858;6.586;2023-07-22T13:50:44;3.27;;;2.97;;
14316;SDS011;7242;50.858;6.586;2023-07-22T13:53:45;3.23;;;2.70;;
14316;SDS011;7242;50.858;6.586;2023-07-22T13:56:45;2.70;;;2.50;;
14316;SDS011;7242;50.858;6.586;2023-07-22T13:59:47;4.53;;;2.30;;
14316;SDS011;7242;50.858;6.586;2023-07-22T14:02:48;3.43;;;2.97;;
14316;SDS011;7242;50.858;6.586;2023-07-22T14:05:48;4.27;;;2.90;;
14316;SDS011;7242;50.858;6.586;2023-07-22T14:08:49;5.23;;;2.60;;
14316;SDS011;7242;50.858;6.586;2023-07-22T14:11:50;5.23;;;2.70;;
14316;SDS011;7242;50.858;6.586;2023-07-22T14:14:51;2.80;;;2.20;;
14316;SDS011;7242;50.858;6.586;2023-07-22T14:17:52;3.67;;;3.17;;
14316;SDS011;7242;50.858;6.586;2023-07-22T14:20:52;7.33;;;2.90;;
14316;SDS011;7242;50.858;6.586;2023-07-22T14:23:53;5.83;;;4.53;;
14316;SDS011;7242;50.858;6.586;2023-07-22T14:26:55;4.07;;;2.70;;
14316;SDS011;7242;50.858;6.586;2023-07-22T14:29:56;2.60;;;2.40;;
14316;SDS011;7242;50.858;6.586;2023-07-22T14:32:57;3.13;;;2.83;;
14316;SDS011;7242;50.858;6.586;2023-07-22T14:35:58;3.70;;;2.57;;
14316;SDS011;7242;50.858;6.586;2023-07-22T14:38:59;4.20;;;3.40;;
14316;SDS011;7242;50.858;6.586;2023-07-22T14:42:00;4.33;;;2.80;;
14316;SDS011;7242;50.858;6.586;2023-07-22T14:45:01;5.07;;;2.73;;
14316;SDS011;7242;50.858;6.586;2023-07-22T14:48:01;4.77;;;3.30;;
14316;SDS011;7242;50.858;6.586;2023-07-22T14:51:03;2.83;;;2.60;;
14316;SDS011;7242;50.858;6.586;2023-07-22T14:54:04;3.13;;;2.73;;
14316;SDS011;7242;50.858;6.586;2023-07-22T14:57:05;3.27;;;2.70;;
14316;SDS011;7242;50.858;6.586;2023-07-22T15:00:06;3.33;;;2.90;;
14316;SDS011;7242;50.858;6.586;2023-07-22T15:03:07;3.67;;;2.70;;
14316;SDS011;7242;50.858;6.586;2023-07-22T15:06:08;4.00;;;2.80;;
14316;SDS011;7242;50.858;6.586;2023-07-22T15:09:09;6.37;;;2.80;;
14316;SDS011;7242;50.858;6.586;2023-07-22T15:12:10;4.37;;;2.80;;
14316;SDS011;7242;50.858;6.586;2023-07-22T15:15:11;3.10;;;2.80;;
14316;SDS011;7242;50.858;6.586;2023-07-22T15:18:12;2.70;;;2.40;;
14316;SDS011;7242;50.858;6.586;2023-07-22T15:21:13;5.00;;;2.80;;
14316;SDS011;7242;50.858;6.586;2023-07-22T15:24:14;4.97;;;2.70;;
14316;SDS011;7242;50.858;6.586;2023-07-22T15:27:15;5.80;;;3.60;;
14316;SDS011;7242;50.858;6.586;2023-07-22T15:30:16;2.67;;;2.23;;
14316;SDS011;7242;50.858;6.586;2023-07-22T15:33:17;3.00;;;2.50;;
14316;SDS011;7242;50.858;6.586;2023-07-22T15:36:18;4.00;;;2.77;;
14316;SDS011;7242;50.858;6.586;2023-07-22T15:39:19;3.50;;;2.80;;
14316;SDS011;7242;50.858;6.586;2023-07-22T15:42:20;5.23;;;2.70;;
14316;SDS011;7242;50.858;6.586;2023-07-22T15:45:21;3.50;;;3.20;;
14316;SDS011;7242;50.858;6.586;2023-07-22T15:48:22;4.00;;;2.97;;
14316;SDS011;7242;50.858;6.586;2023-07-22T15:51:23;4.37;;;3.00;;
14316;SDS011;7242;50.858;6.586;2023-07-22T15:54:24;5.57;;;2.83;;
14316;SDS011;7242;50.858;6.586;2023-07-22T15:57:25;4.17;;;2.87;;
14316;SDS011;7242;50.858;6.586;2023-07-22T16:00:25;2.60;;;2.40;;
14316;SDS011;7242;50.858;6.586;2023-07-22T16:03:26;4.57;;;2.53;;
14316;SDS011;7242;50.858;6.586;2023-07-22T16:06:27;3.37;;;2.50;;
14316;SDS011;7242;50.858;6.586;2023-07-22T16:09:29;4.67;;;2.50;;
14316;SDS011;7242;50.858;6.586;2023-07-22T16:12:30;2.83;;;2.20;;
14316;SDS011;7242;50.858;6.586;2023-07-22T16:15:31;4.70;;;2.57;;
14316;SDS011;7242;50.858;6.586;2023-07-22T16:18:33;2.77;;;2.00;;
14316;SDS011;7242;50.858;6.586;2023-07-22T16:21:34;2.60;;;2.37;;
14316;SDS011;7242;50.858;6.586;2023-07-22T16:24:35;3.30;;;2.33;;
14316;SDS011;7242;50.858;6.586;2023-07-22T16:27:36;2.40;;;2.10;;
14316;SDS011;7242;50.858;6.586;2023-07-22T16:30:37;3.53;;;2.30;;
14316;SDS011;7242;50.858;6.586;2023-07-22T16:33:37;2.87;;;1.93;;
14316;SDS011;7242;50.858;6.586;2023-07-22T16:36:38;3.00;;;2.17;;
14316;SDS011;7242;50.858;6.586;2023-07-22T16:39:39;2.90;;;2.23;;
14316;SDS011;7242;50.858;6.586;2023-07-22T16:42:40;3.33;;;2.30;;
14316;SDS011;7242;50.858;6.586;2023-07-22T16:45:41;3.93;;;2.20;;
14316;SDS011;7242;50.858;6.586;2023-07-22T16:48:42;3.07;;;2.50;;
14316;SDS011;7242;50.858;6.586;2023-07-22T16:51:43;2.90;;;2.60;;
14316;SDS011;7242;50.858;6.586;2023-07-22T16:54:44;2.60;;;2.40;;
14316;SDS011;7242;50.858;6.586;2023-07-22T16:57:45;3.83;;;2.20;;
14316;SDS011;7242;50.858;6.586;2023-07-22T17:00:46;3.43;;;2.70;;
14316;SDS011;7242;50.858;6.586;2023-07-22T17:03:47;3.93;;;2.60;;
14316;SDS011;7242;50.858;6.586;2023-07-22T17:06:48;5.03;;;2.90;;
14316;SDS011;7242;50.858;6.586;2023-07-22T17:09:49;3.03;;;2.70;;
14316;SDS011;7242;50.858;6.586;2023-07-22T17:12:50;4.87;;;2.40;;
14316;SDS011;7242;50.858;6.586;2023-07-22T17:15:51;3.13;;;2.40;;
14316;SDS011;7242;50.858;6.586;2023-07-22T17:18:51;3.33;;;2.50;;
14316;SDS011;7242;50.858;6.586;2023-07-22T17:21:52;3.33;;;2.77;;
14316;SDS011;7242;50.858;6.586;2023-07-22T17:24:53;3.70;;;2.60;;
14316;SDS011;7242;50.858;6.586;2023-07-22T17:27:54;3.20;;;2.50;;
14316;SDS011;7242;50.858;6.586;2023-07-22T17:30:58;3.17;;;2.57;;
14316;SDS011;7242;50.858;6.586;2023-07-22T17:33:59;6.30;;;2.80;;
14316;SDS011;7242;50.858;6.586;2023-07-22T17:37:00;5.20;;;2.73;;
14316;SDS011;7242;50.858;6.586;2023-07-22T17:40:01;3.80;;;2.50;;
14316;SDS011;7242;50.858;6.586;2023-07-22T17:43:02;11.50;;;3.07;;
14316;SDS011;7242;50.858;6.586;2023-07-22T17:46:04;5.07;;;2.90;;
14316;SDS011;7242;50.858;6.586;2023-07-22T17:49:05;3.07;;;2.67;;
14316;SDS011;7242;50.858;6.586;2023-07-22T17:52:06;2.80;;;2.40;;
14316;SDS011;7242;50.858;6.586;2023-07-22T17:55:08;4.30;;;2.70;;
14316;SDS011;7242;50.858;6.586;2023-07-22T17:58:13;4.37;;;2.43;;
14316;SDS011;7242;50.858;6.586;2023-07-22T18:01:14;2.87;;;2.40;;
14316;SDS011;7242;50.858;6.586;2023-07-22T18:04:15;3.73;;;2.57;;
14316;SDS011;7242;50.858;6.586;2023-07-22T18:07:16;2.60;;;2.40;;
14316;SDS011;7242;50.858;6.586;2023-07-22T18:10:17;3.20;;;2.70;;
14316;SDS011;7242;50.858;6.586;2023-07-22T18:13:18;4.23;;;2.60;;
14316;SDS011;7242;50.858;6.586;2023-07-22T18:16:20;4.90;;;2.90;;
14316;SDS011;7242;50.858;6.586;2023-07-22T18:19:20;3.70;;;2.80;;
14316;SDS011;7242;50.858;6.586;2023-07-22T18:22:21;4.30;;;2.90;;
14316;SDS011;7242;50.858;6.586;2023-07-22T18:25:22;5.90;;;2.80;;
14316;SDS011;7242;50.858;6.586;2023-07-22T18:28:24;3.40;;;3.00;;